createdAt,value
2018-06-11T00:01:29.215Z,16.30
2018-06-11T00:03:58.423Z,16.30
2018-06-11T00:06:27.647Z,16.20
2018-06-11T00:08:57.073Z,16.20
2018-06-11T00:11:26.322Z,16.20
2018-06-11T00:13:55.511Z,16.10
2018-06-11T00:16:24.859Z,16.00
2018-06-11T00:18:54.210Z,15.80
2018-06-11T00:21:23.447Z,15.70
2018-06-11T00:23:52.847Z,15.70
2018-06-11T00:28:50.704Z,15.70
2018-06-11T00:31:19.826Z,15.70
2018-06-11T00:33:48.823Z,15.70
2018-06-11T00:36:18.075Z,15.70
2018-06-11T00:38:47.267Z,15.50
2018-06-11T00:41:16.475Z,15.50
2018-06-11T00:43:45.613Z,15.50
2018-06-11T00:46:14.904Z,15.40
2018-06-11T00:48:44.128Z,15.40
2018-06-11T00:51:13.606Z,15.40
2018-06-11T00:53:42.761Z,15.30
2018-06-11T00:56:12.037Z,15.30
2018-06-11T00:58:41.676Z,15.30
2018-06-11T01:01:10.866Z,15.30
2018-06-11T01:03:40.103Z,15.30
2018-06-11T01:06:09.465Z,15.30
2018-06-11T01:08:38.984Z,15.40
2018-06-11T01:11:08.633Z,15.40
2018-06-11T01:13:38.038Z,15.30
2018-06-11T01:16:07.129Z,15.30
2018-06-11T01:18:36.451Z,15.20
2018-06-11T01:21:05.733Z,15.00
2018-06-11T01:23:35.208Z,15.10
2018-06-11T01:26:04.683Z,15.10
2018-06-11T01:28:34.000Z,15.20
2018-06-11T01:31:03.472Z,15.20
2018-06-11T01:33:32.831Z,15.20
2018-06-11T01:36:02.131Z,15.20
2018-06-11T01:38:31.304Z,15.10
2018-06-11T01:41:00.489Z,15.10
2018-06-11T01:43:29.947Z,15.10
2018-06-11T01:45:59.486Z,15.10
2018-06-11T01:48:28.822Z,15.10
2018-06-11T01:50:58.129Z,15.20
2018-06-11T01:53:27.469Z,15.10
2018-06-11T01:55:56.751Z,15.10
2018-06-11T01:58:26.088Z,15.00
2018-06-11T02:00:55.470Z,15.10
2018-06-11T02:03:24.635Z,15.00
2018-06-11T02:05:54.123Z,15.00
2018-06-11T02:08:23.379Z,15.10
2018-06-11T02:10:52.795Z,14.90
2018-06-11T02:13:22.184Z,14.80
2018-06-11T02:15:51.350Z,14.50
2018-06-11T02:18:20.879Z,14.50
2018-06-11T02:20:50.079Z,14.60
2018-06-11T02:23:19.419Z,14.70
2018-06-11T02:25:48.843Z,14.70
2018-06-11T02:28:17.939Z,14.70
2018-06-11T02:30:47.159Z,14.70
2018-06-11T02:33:16.375Z,14.60
2018-06-11T02:35:45.600Z,14.40
2018-06-11T02:38:14.804Z,14.20
2018-06-11T02:40:44.480Z,14.30
2018-06-11T02:43:13.715Z,14.30
2018-06-11T02:45:43.090Z,14.20
2018-06-11T02:50:41.305Z,14.30
2018-06-11T02:55:38.848Z,14.50
2018-06-11T02:58:08.044Z,14.50
2018-06-11T03:00:37.392Z,14.50
2018-06-11T03:03:06.768Z,14.50
2018-06-11T03:05:35.993Z,14.40
2018-06-11T03:08:05.111Z,14.40
2018-06-11T03:10:34.636Z,14.50
2018-06-11T03:13:04.069Z,14.50
2018-06-11T03:15:33.563Z,14.50
2018-06-11T03:18:02.695Z,14.40
2018-06-11T03:20:32.055Z,14.30
2018-06-11T03:23:01.779Z,14.30
2018-06-11T03:25:31.027Z,14.40
2018-06-11T03:28:00.503Z,14.40
2018-06-11T03:30:29.892Z,14.30
2018-06-11T03:32:59.464Z,14.20
2018-06-11T03:35:28.594Z,14.10
2018-06-11T03:37:57.991Z,14.20
2018-06-11T03:40:27.230Z,14.30
2018-06-11T03:42:56.544Z,14.40
2018-06-11T03:45:25.839Z,14.40
2018-06-11T03:47:55.198Z,14.50
2018-06-11T03:50:24.646Z,14.50
2018-06-11T03:52:53.991Z,14.60
2018-06-11T03:55:23.245Z,14.50
2018-06-11T03:57:52.547Z,14.60
2018-06-11T04:00:21.794Z,14.70
2018-06-11T04:02:51.152Z,14.70
2018-06-11T04:05:20.280Z,14.90
2018-06-11T04:07:49.447Z,15.00
2018-06-11T04:10:18.631Z,15.20
2018-06-11T04:12:47.957Z,15.30
2018-06-11T04:15:17.280Z,15.40
2018-06-11T04:17:46.647Z,15.40
2018-06-11T04:20:16.150Z,15.40
2018-06-11T04:22:45.864Z,15.50
2018-06-11T04:25:14.891Z,15.70
2018-06-11T04:27:44.951Z,15.90
2018-06-11T04:30:14.212Z,16.10
2018-06-11T04:32:43.632Z,16.30
2018-06-11T04:35:13.027Z,16.40
2018-06-11T04:37:42.300Z,16.40
2018-06-11T04:40:11.935Z,16.60
2018-06-11T04:42:41.364Z,16.70
2018-06-11T04:45:10.449Z,16.90
2018-06-11T04:47:39.901Z,16.90
2018-06-11T04:50:09.027Z,16.90
2018-06-11T04:52:38.223Z,17.10
2018-06-11T04:55:07.507Z,17.20
2018-06-11T04:57:36.926Z,17.30
2018-06-11T05:00:06.232Z,17.50
2018-06-11T05:02:35.771Z,17.70
2018-06-11T05:05:04.915Z,17.90
2018-06-11T05:07:34.364Z,18.10
2018-06-11T05:10:04.080Z,18.30
2018-06-11T05:12:33.307Z,18.30
2018-06-11T05:15:03.116Z,18.40
2018-06-11T05:17:32.660Z,18.50
2018-06-11T05:20:01.960Z,18.50
2018-06-11T05:22:31.472Z,18.60
2018-06-11T05:25:01.005Z,18.60
2018-06-11T05:27:30.100Z,18.90
2018-06-11T05:29:59.567Z,19.10
2018-06-11T05:32:28.681Z,19.30
2018-06-11T05:34:57.844Z,19.50
2018-06-11T05:37:27.227Z,19.70
2018-06-11T05:39:56.444Z,20.00
2018-06-11T05:42:25.656Z,20.30
2018-06-11T05:44:54.804Z,20.50
2018-06-11T05:47:23.984Z,20.80
2018-06-11T05:49:53.684Z,21.10
2018-06-11T05:52:22.954Z,21.20
2018-06-11T05:54:52.413Z,21.40
2018-06-11T05:57:21.740Z,21.70
2018-06-11T05:59:51.006Z,21.80
2018-06-11T06:02:20.269Z,21.70
2018-06-11T06:04:49.675Z,21.70
2018-06-11T06:07:19.072Z,21.60
2018-06-11T06:09:48.374Z,21.60
2018-06-11T06:12:17.672Z,21.70
2018-06-11T06:14:47.381Z,21.70
2018-06-11T06:17:16.791Z,21.70
2018-06-11T06:19:46.040Z,21.70
2018-06-11T06:22:15.719Z,21.70
2018-06-11T06:24:45.083Z,21.70
2018-06-11T06:27:14.283Z,21.90
2018-06-11T06:29:43.988Z,22.30
2018-06-11T06:32:13.245Z,22.80
2018-06-11T06:34:42.644Z,22.80
2018-06-11T06:37:11.891Z,22.70
2018-06-11T06:39:41.080Z,22.70
2018-06-11T06:42:10.393Z,22.90
2018-06-11T06:44:39.667Z,23.00
2018-06-11T06:47:08.940Z,23.40
2018-06-11T06:49:38.154Z,23.60
2018-06-11T06:52:07.687Z,23.40
2018-06-11T06:54:37.160Z,23.00
2018-06-11T06:57:06.663Z,23.10
2018-06-11T06:59:35.974Z,23.40
2018-06-11T07:02:05.190Z,23.20
2018-06-11T07:04:34.548Z,23.40
2018-06-11T07:07:04.092Z,23.40
2018-06-11T07:09:33.199Z,23.30
2018-06-11T07:12:02.674Z,23.00
2018-06-11T07:14:31.780Z,23.40
2018-06-11T07:17:01.403Z,23.40
2018-06-11T07:19:30.966Z,23.40
2018-06-11T07:22:00.391Z,23.00
2018-06-11T07:24:29.508Z,23.00
2018-06-11T07:26:58.737Z,22.80
2018-06-11T07:29:28.055Z,23.00
2018-06-11T07:31:57.284Z,23.50
2018-06-11T07:34:26.758Z,23.80
2018-06-11T07:36:56.095Z,23.70
2018-06-11T07:39:24.996Z,23.80
2018-06-11T07:41:54.258Z,23.80
2018-06-11T07:44:23.680Z,23.90
2018-06-11T07:46:52.866Z,23.90
2018-06-11T07:49:22.218Z,23.90
2018-06-11T07:51:51.700Z,24.00
2018-06-11T07:54:20.756Z,23.70
2018-06-11T07:56:50.191Z,23.80
2018-06-11T07:59:19.835Z,23.70
2018-06-11T08:01:49.105Z,23.70
2018-06-11T08:04:18.287Z,23.10
2018-06-11T08:06:48.047Z,22.60
2018-06-11T08:09:17.631Z,23.00
2018-06-11T08:11:46.794Z,23.30
2018-06-11T08:14:16.387Z,24.10
2018-06-11T08:16:45.851Z,24.10
2018-06-11T08:21:43.694Z,24.70
2018-06-11T08:24:12.946Z,24.50
2018-06-11T08:29:11.224Z,24.60
2018-06-11T08:31:40.656Z,24.50
2018-06-11T08:34:09.966Z,24.70
2018-06-11T08:36:39.274Z,24.90
2018-06-11T08:39:09.160Z,25.30
2018-06-11T08:41:38.415Z,25.30
2018-06-11T08:44:07.674Z,25.50
2018-06-11T08:46:36.927Z,24.90
2018-06-11T08:49:06.025Z,24.80
2018-06-11T08:51:35.301Z,25.00
2018-06-11T08:54:04.683Z,25.10
2018-06-11T08:56:33.837Z,25.50
2018-06-11T08:59:03.164Z,26.10
2018-06-11T09:01:32.373Z,26.20
2018-06-11T09:04:01.851Z,25.60
2018-06-11T09:06:31.140Z,25.60
2018-06-11T09:09:00.478Z,25.70
2018-06-11T09:11:30.041Z,25.40
2018-06-11T09:13:59.347Z,25.10
2018-06-11T09:16:28.499Z,25.10
2018-06-11T09:18:57.962Z,25.20
2018-06-11T09:21:27.308Z,25.20
2018-06-11T09:23:56.486Z,25.40
2018-06-11T09:26:25.721Z,25.40
2018-06-11T09:28:54.979Z,25.80
2018-06-11T09:31:24.463Z,25.90
2018-06-11T09:33:53.553Z,25.60
2018-06-11T09:36:22.870Z,25.70
2018-06-11T09:38:52.281Z,25.70
2018-06-11T09:41:21.630Z,25.10
2018-06-11T09:43:51.473Z,26.20
2018-06-11T09:46:20.987Z,26.70
2018-06-11T09:48:50.198Z,27.00
2018-06-11T09:51:19.593Z,27.00
2018-06-11T09:53:48.806Z,26.70
2018-06-11T09:56:17.887Z,25.30
2018-06-11T09:58:47.304Z,25.60
2018-06-11T10:01:16.637Z,25.10
2018-06-11T10:03:45.921Z,24.90
2018-06-11T10:06:15.272Z,25.50
2018-06-11T10:08:44.540Z,26.10
2018-06-11T10:11:13.832Z,26.80
2018-06-11T10:13:43.041Z,27.70
2018-06-11T10:16:12.319Z,26.70
2018-06-11T10:18:41.680Z,26.70
2018-06-11T10:21:11.455Z,27.40
2018-06-11T10:23:40.784Z,27.30
2018-06-11T10:26:09.988Z,27.70
2018-06-11T10:28:39.183Z,25.80
2018-06-11T10:31:08.312Z,25.70
2018-06-11T10:33:37.902Z,25.80
2018-06-11T10:36:07.190Z,25.50
2018-06-11T10:38:36.321Z,25.40
2018-06-11T10:43:34.463Z,27.00
2018-06-11T10:46:03.911Z,26.90
2018-06-11T10:48:33.064Z,27.10
2018-06-11T10:51:02.424Z,26.60
2018-06-11T10:53:31.747Z,27.10
2018-06-11T10:56:00.936Z,26.20
2018-06-11T10:58:30.265Z,26.40
2018-06-11T11:00:59.609Z,26.90
2018-06-11T11:03:29.070Z,27.30
2018-06-11T11:05:58.256Z,26.60
2018-06-11T11:08:27.367Z,27.30
2018-06-11T11:10:56.411Z,27.50
2018-06-11T11:13:26.089Z,27.40
2018-06-11T11:18:24.451Z,26.60
2018-06-11T11:20:53.632Z,25.50
2018-06-11T11:23:22.923Z,25.80
2018-06-11T11:25:52.564Z,26.40
2018-06-11T11:28:22.155Z,26.50
2018-06-11T11:30:51.298Z,26.60
2018-06-11T11:33:20.725Z,26.80
2018-06-11T11:35:50.204Z,25.90
2018-06-11T11:38:19.390Z,26.20
2018-06-11T11:40:48.839Z,26.60
2018-06-11T11:43:18.177Z,26.70
2018-06-11T11:45:47.376Z,26.80
2018-06-11T11:48:16.563Z,25.90
2018-06-11T11:50:45.759Z,25.90
2018-06-11T11:53:15.495Z,25.80
2018-06-11T11:55:44.767Z,26.20
2018-06-11T11:58:14.175Z,26.20
2018-06-11T12:00:43.607Z,26.40
2018-06-11T12:05:41.758Z,27.30
2018-06-11T12:08:11.200Z,27.10
2018-06-11T12:10:40.512Z,27.10
2018-06-11T12:13:10.079Z,26.80
2018-06-11T12:15:39.510Z,26.30
2018-06-11T12:18:08.888Z,26.90
2018-06-11T12:20:38.346Z,26.80
2018-06-11T12:23:08.000Z,26.50
2018-06-11T12:25:37.256Z,26.20
2018-06-11T12:28:06.861Z,26.40
2018-06-11T12:30:36.345Z,25.70
2018-06-11T12:33:05.995Z,25.60
2018-06-11T12:35:35.759Z,25.30
2018-06-11T12:38:05.444Z,25.80
2018-06-11T12:40:35.102Z,26.20
2018-06-11T12:43:04.661Z,26.10
2018-06-11T12:45:33.843Z,26.50
2018-06-11T12:48:03.145Z,27.20
2018-06-11T12:50:32.929Z,27.20
2018-06-11T12:53:02.292Z,26.50
2018-06-11T12:55:31.765Z,26.60
2018-06-11T12:58:01.581Z,26.20
2018-06-11T13:00:30.950Z,26.20
2018-06-11T13:03:00.396Z,26.10
2018-06-11T13:05:29.828Z,26.20
2018-06-11T13:07:59.313Z,26.00
2018-06-11T13:10:29.144Z,26.50
2018-06-11T13:12:58.676Z,26.20
2018-06-11T13:15:28.358Z,25.60
2018-06-11T13:17:57.895Z,25.80
2018-06-11T13:20:27.066Z,25.50
2018-06-11T13:22:56.593Z,25.60
2018-06-11T13:25:26.267Z,26.20
2018-06-11T13:27:55.705Z,26.40
2018-06-11T13:30:25.445Z,26.80
2018-06-11T13:32:54.836Z,26.60
2018-06-11T13:35:24.168Z,26.90
2018-06-11T13:37:53.745Z,27.40
2018-06-11T13:40:23.225Z,27.10
2018-06-11T13:42:52.849Z,27.10
2018-06-11T13:45:22.264Z,26.70
2018-06-11T13:47:51.699Z,25.70
2018-06-11T13:50:21.165Z,25.80
2018-06-11T13:55:19.416Z,27.50
2018-06-11T13:57:49.237Z,28.00
2018-06-11T14:00:18.672Z,27.60
2018-06-11T14:02:48.260Z,27.90
2018-06-11T14:05:17.649Z,27.40
2018-06-11T14:07:47.166Z,27.40
2018-06-11T14:10:16.680Z,27.40
2018-06-11T14:12:46.058Z,26.80
2018-06-11T14:15:15.481Z,26.90
2018-06-11T14:17:44.975Z,26.30
2018-06-11T14:20:14.717Z,27.20
2018-06-11T14:22:44.185Z,26.30
2018-06-11T14:25:13.308Z,25.90
2018-06-11T14:27:42.743Z,25.80
2018-06-11T14:30:12.231Z,26.30
2018-06-11T14:32:41.494Z,26.80
2018-06-11T14:35:10.796Z,26.20
2018-06-11T14:37:40.447Z,26.00
2018-06-11T14:40:09.931Z,25.80
2018-06-11T14:42:39.718Z,25.90
2018-06-11T14:47:37.753Z,26.60
2018-06-11T14:50:06.956Z,26.60
2018-06-11T14:52:36.615Z,26.80
2018-06-11T14:55:06.781Z,26.20
2018-06-11T14:57:36.222Z,26.00
2018-06-11T15:00:05.920Z,25.60
2018-06-11T15:02:35.350Z,25.30
2018-06-11T15:05:04.977Z,26.00
2018-06-11T15:07:34.310Z,26.40
2018-06-11T15:10:03.601Z,26.70
2018-06-11T15:12:33.465Z,26.30
2018-06-11T15:15:02.917Z,26.50
2018-06-11T15:17:32.112Z,26.60
2018-06-11T15:20:01.756Z,26.50
2018-06-11T15:22:31.249Z,26.80
2018-06-11T15:25:00.705Z,26.30
2018-06-11T15:27:30.153Z,25.90
2018-06-11T15:30:00.286Z,26.20
2018-06-11T15:32:29.901Z,26.30
2018-06-11T15:34:59.221Z,26.10
2018-06-11T15:37:28.540Z,26.50
2018-06-11T15:39:57.932Z,26.80
2018-06-11T15:42:27.344Z,26.40
2018-06-11T15:44:56.951Z,26.00
2018-06-11T15:47:26.373Z,25.80
2018-06-11T15:49:55.848Z,25.50
2018-06-11T15:52:25.152Z,25.30
2018-06-11T15:54:54.421Z,25.60
2018-06-11T15:57:24.151Z,25.60
2018-06-11T15:59:53.669Z,25.40
2018-06-11T16:02:23.370Z,25.20
2018-06-11T16:04:52.933Z,25.20
2018-06-11T16:07:22.202Z,25.60
2018-06-11T16:09:51.603Z,25.90
2018-06-11T16:12:20.985Z,25.90
2018-06-11T16:14:50.878Z,25.80
2018-06-11T16:17:20.391Z,25.70
2018-06-11T16:19:50.093Z,25.80
2018-06-11T16:22:19.077Z,25.70
2018-06-11T16:27:17.492Z,25.90
2018-06-11T16:29:46.912Z,25.90
2018-06-11T16:32:16.376Z,25.70
2018-06-11T16:34:45.664Z,25.70
2018-06-11T16:37:15.177Z,25.70
2018-06-11T16:39:44.514Z,25.60
2018-06-11T16:42:14.109Z,25.60
2018-06-11T16:44:43.441Z,25.20
2018-06-11T16:47:12.760Z,24.80
2018-06-11T16:49:42.111Z,24.50
2018-06-11T16:52:12.575Z,24.60
2018-06-11T16:54:42.381Z,24.80
2018-06-11T16:57:11.796Z,24.80
2018-06-11T16:59:40.973Z,24.70
2018-06-11T17:02:10.501Z,24.60
2018-06-11T17:04:39.783Z,24.70
2018-06-11T17:07:09.175Z,24.50
2018-06-11T17:09:38.850Z,24.50
2018-06-11T17:12:08.250Z,24.20
2018-06-11T17:14:38.313Z,24.20
2018-06-11T17:17:07.911Z,24.10
2018-06-11T17:19:37.628Z,24.10
2018-06-11T17:22:07.133Z,24.20
2018-06-11T17:24:36.851Z,24.30
2018-06-11T17:27:05.792Z,24.00
2018-06-11T17:29:35.415Z,23.80
2018-06-11T17:32:05.077Z,23.70
2018-06-11T17:34:34.581Z,23.80
2018-06-11T17:37:04.259Z,23.60
2018-06-11T17:39:33.636Z,23.50
2018-06-11T17:42:03.099Z,23.00
2018-06-11T17:44:32.554Z,22.90
2018-06-11T17:47:01.884Z,22.70
2018-06-11T17:49:31.291Z,22.60
2018-06-11T17:52:00.693Z,22.40
2018-06-11T17:54:30.233Z,22.40
2018-06-11T17:57:00.638Z,22.00
2018-06-11T17:59:30.010Z,21.70
2018-06-11T18:01:59.028Z,21.50
2018-06-11T18:04:28.687Z,21.50
2018-06-11T18:06:58.437Z,21.30
2018-06-11T18:14:25.514Z,21.20
2018-06-11T18:19:24.556Z,20.90
2018-06-11T18:21:53.893Z,20.90
2018-06-11T18:24:23.487Z,21.00
2018-06-11T18:26:53.290Z,20.80
2018-06-11T18:29:23.061Z,20.70
2018-06-11T18:31:52.456Z,20.60
2018-06-11T18:34:21.939Z,20.50
2018-06-11T18:36:51.601Z,20.40
2018-06-11T18:39:21.389Z,20.30
2018-06-11T18:41:50.904Z,20.30
2018-06-11T18:44:20.295Z,20.20
2018-06-11T18:46:49.830Z,20.20
2018-06-11T18:49:19.226Z,20.10
2018-06-11T18:51:48.935Z,20.00
2018-06-11T18:54:18.153Z,19.60
2018-06-11T18:56:47.784Z,19.40
2018-06-11T18:59:17.145Z,19.30
2018-06-11T19:01:46.634Z,19.30
2018-06-11T19:04:15.780Z,19.30
2018-06-11T19:06:45.264Z,19.30
2018-06-11T19:09:14.512Z,19.20
2018-06-11T19:11:43.704Z,19.20
2018-06-11T19:14:13.250Z,19.00
2018-06-11T19:16:42.751Z,19.10
2018-06-11T19:19:12.247Z,19.00
2018-06-11T19:21:41.740Z,19.00
2018-06-11T19:24:11.182Z,18.90
2018-06-11T19:26:40.870Z,19.00
2018-06-11T19:29:10.966Z,18.90
2018-06-11T19:31:40.487Z,18.90
2018-06-11T19:34:09.649Z,18.90
2018-06-11T19:36:38.986Z,18.90
2018-06-11T19:39:08.189Z,18.70
2018-06-11T19:41:37.848Z,18.70
2018-06-11T19:44:07.322Z,18.60
2018-06-11T19:46:36.605Z,18.50
2018-06-11T19:49:05.904Z,18.50
2018-06-11T19:51:35.205Z,18.30
2018-06-11T19:54:04.451Z,18.30
2018-06-11T19:56:33.678Z,18.30
2018-06-11T19:59:02.962Z,18.20
2018-06-11T20:01:32.584Z,18.20
2018-06-11T20:04:01.745Z,18.10
2018-06-11T20:06:31.107Z,18.10
2018-06-11T20:09:00.714Z,18.00
2018-06-11T20:11:30.107Z,17.90
2018-06-11T20:13:59.640Z,17.90
2018-06-11T20:16:29.604Z,17.80
2018-06-11T20:18:58.758Z,17.60
2018-06-11T20:21:28.246Z,17.30
2018-06-11T20:23:57.890Z,17.20
2018-06-11T20:28:55.828Z,17.30
2018-06-11T20:31:25.453Z,17.30
2018-06-11T20:33:55.180Z,17.30
2018-06-11T20:36:25.619Z,17.30
2018-06-11T20:38:55.327Z,17.40
2018-06-11T20:41:24.739Z,17.40
2018-06-11T20:43:54.434Z,17.30
2018-06-11T20:46:24.087Z,17.20
2018-06-11T20:48:53.516Z,17.10
2018-06-11T20:51:23.170Z,17.00
2018-06-11T20:53:52.499Z,17.00
2018-06-11T20:56:22.336Z,16.90
2018-06-11T20:58:51.869Z,16.90
2018-06-11T21:01:21.448Z,16.60
2018-06-11T21:03:50.600Z,16.70
2018-06-11T21:06:19.804Z,16.80
2018-06-11T21:08:49.074Z,16.70
2018-06-11T21:11:18.328Z,16.40
2018-06-11T21:13:47.691Z,16.40
2018-06-11T21:16:17.153Z,16.40
2018-06-11T21:18:46.551Z,16.50
2018-06-11T21:21:16.220Z,16.40
2018-06-11T21:23:45.821Z,16.40
2018-06-11T21:26:15.359Z,16.30
2018-06-11T21:28:44.789Z,16.30
2018-06-11T21:33:43.111Z,16.10
2018-06-11T21:36:12.319Z,16.00
2018-06-11T21:38:41.717Z,16.10
2018-06-11T21:41:10.862Z,16.20
2018-06-11T21:43:40.198Z,16.20
2018-06-11T21:46:09.869Z,16.10
2018-06-11T21:48:39.235Z,16.10
2018-06-11T21:51:08.517Z,15.90
2018-06-11T21:53:37.951Z,16.00
2018-06-11T21:56:07.564Z,15.90
2018-06-11T21:58:37.543Z,15.80
2018-06-11T22:01:06.869Z,15.80
2018-06-11T22:03:36.210Z,15.50
2018-06-11T22:06:05.550Z,15.50
2018-06-11T22:08:34.723Z,15.50
2018-06-11T22:11:03.951Z,15.50
2018-06-11T22:13:33.371Z,15.60
2018-06-11T22:16:02.924Z,15.60
2018-06-11T22:18:32.088Z,15.60
2018-06-11T22:21:01.155Z,15.50
2018-06-11T22:23:30.643Z,15.50
2018-06-11T22:25:59.746Z,15.60
2018-06-11T22:28:29.043Z,15.60
2018-06-11T22:30:58.627Z,15.60
2018-06-11T22:33:28.160Z,15.60
2018-06-11T22:35:57.543Z,15.60
2018-06-11T22:38:26.935Z,15.60
2018-06-11T22:40:56.307Z,15.50
2018-06-11T22:43:25.656Z,15.50
2018-06-11T22:45:54.916Z,15.20
2018-06-11T22:48:24.083Z,15.30
2018-06-11T22:50:53.623Z,15.20
2018-06-11T22:53:22.931Z,15.20
2018-06-11T22:55:52.003Z,15.00
2018-06-11T22:58:21.399Z,15.10
2018-06-11T23:00:50.928Z,15.10
2018-06-11T23:03:20.109Z,15.00
2018-06-11T23:05:49.696Z,14.80
2018-06-11T23:08:19.123Z,15.00
2018-06-11T23:10:48.508Z,15.10
2018-06-11T23:13:17.661Z,15.10
2018-06-11T23:15:46.838Z,14.90
2018-06-11T23:18:16.115Z,14.90
2018-06-11T23:20:45.292Z,14.80
2018-06-11T23:23:14.683Z,14.90
2018-06-11T23:25:43.759Z,14.70
2018-06-11T23:28:13.088Z,14.70
2018-06-11T23:30:42.329Z,14.80
2018-06-11T23:33:11.583Z,14.90
2018-06-11T23:35:41.052Z,14.90
2018-06-11T23:38:10.304Z,14.90
2018-06-11T23:40:40.009Z,14.80
2018-06-11T23:43:09.349Z,14.90
2018-06-11T23:45:38.838Z,14.80
2018-06-11T23:48:08.272Z,14.70
2018-06-11T23:50:37.692Z,14.70
2018-06-11T23:53:06.895Z,14.70
2018-06-11T23:55:36.161Z,14.60
2018-06-11T23:58:05.523Z,14.50
